sensor_id;sensor_type;location;lat;lon;timestamp;P1;P2;P0
55449;PMS5003;41318;58.724;50.180;2023-01-28T00:02:11;3.40;3.00;1.00
55449;PMS5003;41318;58.724;50.180;2023-01-28T00:04:43;3.00;3.00;1.00
55449;PMS5003;41318;58.724;50.180;2023-01-28T00:07:14;3.60;3.60;3.00
55449;PMS5003;41318;58.724;50.180;2023-01-28T00:09:45;3.00;3.00;1.00
55449;PMS5003;41318;58.724;50.180;2023-01-28T00:12:16;3.40;3.20;3.00
55449;PMS5003;41318;58.724;50.180;2023-01-28T00:14:47;0.00;0.00;0.00
55449;PMS5003;41318;58.724;50.180;2023-01-28T00:17:19;3.00;3.00;1.40
55449;PMS5003;41318;58.724;50.180;2023-01-28T00:20:09;0.40;0.40;0.20
55449;PMS5003;41318;58.724;50.180;2023-01-28T00:22:45;3.40;3.40;3.00
55449;PMS5003;41318;58.724;50.180;2023-01-28T00:25:35;0.20;0.20;0.00
55449;PMS5003;41318;58.724;50.180;2023-01-28T00:28:24;2.20;2.20;1.00
55449;PMS5003;41318;58.724;50.180;2023-01-28T00:30:55;4.80;4.80;4.40
55449;PMS5003;41318;58.724;50.180;2023-01-28T00:33:26;4.00;4.00;3.20
55449;PMS5003;41318;58.724;50.180;2023-01-28T00:35:59;10.00;10.00;6.00
55449;PMS5003;41318;58.724;50.180;2023-01-28T00:38:49;0.00;0.00;0.00
55449;PMS5003;41318;58.724;50.180;2023-01-28T00:41:22;0.00;0.00;0.00
55449;PMS5003;41318;58.724;50.180;2023-01-28T00:43:55;0.00;0.00;0.00
55449;PMS5003;41318;58.724;50.180;2023-01-28T00:46:44;0.00;0.00;0.00
55449;PMS5003;41318;58.724;50.180;2023-01-28T00:49:15;3.20;2.20;0.60
55449;PMS5003;41318;58.724;50.180;2023-01-28T00:51:47;0.00;0.00;0.00
55449;PMS5003;41318;58.724;50.180;2023-01-28T00:54:37;0.00;0.00;0.00
55449;PMS5003;41318;58.724;50.180;2023-01-28T00:57:08;0.00;0.00;0.00
55449;PMS5003;41318;58.724;50.180;2023-01-28T00:59:39;3.00;3.00;1.40
55449;PMS5003;41318;58.724;50.180;2023-01-28T01:02:28;0.00;0.00;0.00
55449;PMS5003;41318;58.724;50.180;2023-01-28T01:04:59;1.00;1.00;0.80
55449;PMS5003;41318;58.724;50.180;2023-01-28T01:07:30;2.60;2.60;2.40
55449;PMS5003;41318;58.724;50.180;2023-01-28T01:10:02;0.00;0.00;0.00
55449;PMS5003;41318;58.724;50.180;2023-01-28T01:12:34;1.00;1.00;0.20
55449;PMS5003;41318;58.724;50.180;2023-01-28T01:15:06;1.00;1.00;1.00
55449;PMS5003;41318;58.724;50.180;2023-01-28T01:17:40;3.00;3.00;1.80
55449;PMS5003;41318;58.724;50.180;2023-01-28T01:20:13;3.60;3.60;2.60
55449;PMS5003;41318;58.724;50.180;2023-01-28T01:23:03;10.80;10.60;7.40
55449;PMS5003;41318;58.724;50.180;2023-01-28T01:25:52;1.00;1.00;1.00
55449;PMS5003;41318;58.724;50.180;2023-01-28T01:28:23;0.20;0.20;0.00
55449;PMS5003;41318;58.724;50.180;2023-01-28T01:31:01;20.60;20.60;15.60
55449;PMS5003;41318;58.724;50.180;2023-01-28T01:33:51;1.80;1.80;1.40
55449;PMS5003;41318;58.724;50.180;2023-01-28T01:36:23;0.00;0.00;0.00
55449;PMS5003;41318;58.724;50.180;2023-01-28T01:38:54;1.40;1.40;1.40
55449;PMS5003;41318;58.724;50.180;2023-01-28T01:41:30;4.00;4.00;3.00
55449;PMS5003;41318;58.724;50.180;2023-01-28T01:47:08;1.40;1.40;1.00
55449;PMS5003;41318;58.724;50.180;2023-01-28T01:49:40;1.00;1.00;1.00
55449;PMS5003;41318;58.724;50.180;2023-01-28T01:52:14;1.00;1.00;0.80
55449;PMS5003;41318;58.724;50.180;2023-01-28T01:54:47;1.00;1.00;0.80
55449;PMS5003;41318;58.724;50.180;2023-01-28T01:57:23;3.00;3.00;2.20
55449;PMS5003;41318;58.724;50.180;2023-01-28T02:00:16;0.40;0.40;0.00
55449;PMS5003;41318;58.724;50.180;2023-01-28T02:02:51;1.00;1.00;0.00
55449;PMS5003;41318;58.724;50.180;2023-01-28T02:05:22;12.00;12.00;10.00
55449;PMS5003;41318;58.724;50.180;2023-01-28T02:07:54;8.60;8.60;6.00
55449;PMS5003;41318;58.724;50.180;2023-01-28T02:13:20;2.20;2.20;1.80
55449;PMS5003;41318;58.724;50.180;2023-01-28T02:15:52;6.20;6.20;5.20
55449;PMS5003;41318;58.724;50.180;2023-01-28T02:18:24;7.00;7.00;4.00
55449;PMS5003;41318;58.724;50.180;2023-01-28T02:23:43;6.00;6.00;4.00
55449;PMS5003;41318;58.724;50.180;2023-01-28T02:26:25;7.00;7.00;6.80
55449;PMS5003;41318;58.724;50.180;2023-01-28T02:29:03;0.00;0.00;0.00
55449;PMS5003;41318;58.724;50.180;2023-01-28T02:42:44;0.00;0.00;0.00
55449;PMS5003;41318;58.724;50.180;2023-01-28T02:47:46;11.40;11.40;7.20
55449;PMS5003;41318;58.724;50.180;2023-01-28T02:50:49;11.60;11.60;6.80
55449;PMS5003;41318;58.724;50.180;2023-01-28T02:53:30;1.00;1.00;0.60
55449;PMS5003;41318;58.724;50.180;2023-01-28T03:02:09;1.80;1.80;1.80
55449;PMS5003;41318;58.724;50.180;2023-01-28T03:04:59;0.00;0.00;0.00
55449;PMS5003;41318;58.724;50.180;2023-01-28T03:07:50;0.40;0.40;0.00
55449;PMS5003;41318;58.724;50.180;2023-01-28T03:10:41;3.00;3.00;2.60
55449;PMS5003;41318;58.724;50.180;2023-01-28T03:13:13;3.60;3.60;2.20
55449;PMS5003;41318;58.724;50.180;2023-01-28T03:16:04;14.20;14.00;9.00
55449;PMS5003;41318;58.724;50.180;2023-01-28T03:18:53;8.40;8.20;5.20
55449;PMS5003;41318;58.724;50.180;2023-01-28T03:21:43;11.20;11.20;7.80
55449;PMS5003;41318;58.724;50.180;2023-01-28T03:24:38;5.40;5.40;2.20
55449;PMS5003;41318;58.724;50.180;2023-01-28T03:30:38;12.00;11.60;7.00
55449;PMS5003;41318;58.724;50.180;2023-01-28T03:33:39;20.60;19.40;13.00
55449;PMS5003;41318;58.724;50.180;2023-01-28T03:40:56;0.80;0.80;0.60
55449;PMS5003;41318;58.724;50.180;2023-01-28T03:43:28;1.00;1.00;0.40
55449;PMS5003;41318;58.724;50.180;2023-01-28T03:46:00;10.80;10.00;5.60
55449;PMS5003;41318;58.724;50.180;2023-01-28T03:48:31;44.80;36.00;13.80
55449;PMS5003;41318;58.724;50.180;2023-01-28T03:51:05;50.40;45.00;25.80
55449;PMS5003;41318;58.724;50.180;2023-01-28T03:53:37;44.00;39.80;20.60
55449;PMS5003;41318;58.724;50.180;2023-01-28T03:56:28;43.40;37.80;21.00
55449;PMS5003;41318;58.724;50.180;2023-01-28T03:59:03;15.60;15.20;12.40
55449;PMS5003;41318;58.724;50.180;2023-01-28T04:01:34;22.60;22.00;12.00
55449;PMS5003;41318;58.724;50.180;2023-01-28T04:04:05;16.00;16.00;7.60
55449;PMS5003;41318;58.724;50.180;2023-01-28T04:06:38;4.40;4.40;3.20
55449;PMS5003;41318;58.724;50.180;2023-01-28T04:09:28;19.00;17.20;12.60
55449;PMS5003;41318;58.724;50.180;2023-01-28T04:12:20;1.80;1.00;0.00
55449;PMS5003;41318;58.724;50.180;2023-01-28T04:14:55;2.20;2.20;1.00
55449;PMS5003;41318;58.724;50.180;2023-01-28T04:17:31;1.00;1.00;0.60
55449;PMS5003;41318;58.724;50.180;2023-01-28T04:20:03;17.80;17.80;10.80
55449;PMS5003;41318;58.724;50.180;2023-01-28T04:22:34;12.60;12.60;8.20
55449;PMS5003;41318;58.724;50.180;2023-01-28T04:25:06;7.00;6.60;4.40
55449;PMS5003;41318;58.724;50.180;2023-01-28T04:27:37;10.20;8.20;4.40
55449;PMS5003;41318;58.724;50.180;2023-01-28T04:30:18;15.60;15.60;12.00
55449;PMS5003;41318;58.724;50.180;2023-01-28T04:33:08;2.20;2.20;1.40
55449;PMS5003;41318;58.724;50.180;2023-01-28T04:35:57;3.00;3.00;0.60
55449;PMS5003;41318;58.724;50.180;2023-01-28T04:38:48;4.60;4.60;2.20
55449;PMS5003;41318;58.724;50.180;2023-01-28T04:41:37;7.40;7.40;6.00
55449;PMS5003;41318;58.724;50.180;2023-01-28T04:44:27;6.60;6.60;3.20
55449;PMS5003;41318;58.724;50.180;2023-01-28T04:46:58;6.40;6.20;4.00
55449;PMS5003;41318;58.724;50.180;2023-01-28T04:49:59;3.00;3.00;2.60
55449;PMS5003;41318;58.724;50.180;2023-01-28T04:52:39;4.40;4.40;1.40
55449;PMS5003;41318;58.724;50.180;2023-01-28T04:55:40;6.40;4.80;3.00
55449;PMS5003;41318;58.724;50.180;2023-01-28T04:58:12;4.40;4.40;3.40
55449;PMS5003;41318;58.724;50.180;2023-01-28T05:05:08;3.60;3.00;1.00
55449;PMS5003;41318;58.724;50.180;2023-01-28T05:07:57;3.00;3.00;3.00
55449;PMS5003;41318;58.724;50.180;2023-01-28T05:10:29;0.00;0.00;0.00
55449;PMS5003;41318;58.724;50.180;2023-01-28T05:13:00;1.00;1.00;0.20
55449;PMS5003;41318;58.724;50.180;2023-01-28T05:15:33;1.40;1.40;1.00
55449;PMS5003;41318;58.724;50.180;2023-01-28T05:18:04;4.80;4.80;3.20
55449;PMS5003;41318;58.724;50.180;2023-01-28T05:20:41;7.00;7.00;4.00
55449;PMS5003;41318;58.724;50.180;2023-01-28T05:23:14;16.60;14.40;6.80
55449;PMS5003;41318;58.724;50.180;2023-01-28T05:25:58;7.00;7.00;5.60
55449;PMS5003;41318;58.724;50.180;2023-01-28T05:28:47;15.20;14.60;9.60
55449;PMS5003;41318;58.724;50.180;2023-01-28T05:31:18;8.20;8.20;6.00
55449;PMS5003;41318;58.724;50.180;2023-01-28T05:33:49;3.40;3.40;1.40
55449;PMS5003;41318;58.724;50.180;2023-01-28T05:36:41;10.40;10.00;7.00
55449;PMS5003;41318;58.724;50.180;2023-01-28T05:39:31;18.00;16.40;8.20
55449;PMS5003;41318;58.724;50.180;2023-01-28T05:42:03;12.00;12.00;9.20
55449;PMS5003;41318;58.724;50.180;2023-01-28T05:44:37;13.80;12.80;8.80
55449;PMS5003;41318;58.724;50.180;2023-01-28T05:47:41;16.00;16.00;10.40
55449;PMS5003;41318;58.724;50.180;2023-01-28T05:50:38;3.00;3.00;1.00
55449;PMS5003;41318;58.724;50.180;2023-01-28T05:53:20;7.00;7.00;6.00
55449;PMS5003;41318;58.724;50.180;2023-01-28T06:00:15;0.00;0.00;0.00
55449;PMS5003;41318;58.724;50.180;2023-01-28T06:02:52;0.20;0.00;0.00
55449;PMS5003;41318;58.724;50.180;2023-01-28T06:05:24;0.60;0.60;0.00
55449;PMS5003;41318;58.724;50.180;2023-01-28T06:07:55;0.00;0.00;0.00
55449;PMS5003;41318;58.724;50.180;2023-01-28T06:10:27;6.60;6.60;5.60
55449;PMS5003;41318;58.724;50.180;2023-01-28T06:12:59;6.20;6.20;4.00
55449;PMS5003;41318;58.724;50.180;2023-01-28T06:16:01;16.80;15.80;8.20
55449;PMS5003;41318;58.724;50.180;2023-01-28T06:23:05;19.00;18.00;7.80
55449;PMS5003;41318;58.724;50.180;2023-01-28T06:25:36;38.40;36.00;23.60
55449;PMS5003;41318;58.724;50.180;2023-01-28T06:28:13;3.80;3.80;1.00
55449;PMS5003;41318;58.724;50.180;2023-01-28T06:30:47;6.00;6.00;4.00
55449;PMS5003;41318;58.724;50.180;2023-01-28T06:33:18;3.40;3.40;3.00
55449;PMS5003;41318;58.724;50.180;2023-01-28T06:36:08;1.40;1.40;1.00
55449;PMS5003;41318;58.724;50.180;2023-01-28T06:38:58;3.40;3.40;2.60
55449;PMS5003;41318;58.724;50.180;2023-01-28T06:41:29;15.20;15.20;10.40
55449;PMS5003;41318;58.724;50.180;2023-01-28T06:44:00;14.00;14.00;7.75
55449;PMS5003;41318;58.724;50.180;2023-01-28T06:46:50;15.40;15.40;9.80
55449;PMS5003;41318;58.724;50.180;2023-01-28T06:49:21;40.00;37.80;25.40
55449;PMS5003;41318;58.724;50.180;2023-01-28T06:52:11;27.60;27.60;19.20
55449;PMS5003;41318;58.724;50.180;2023-01-28T06:55:00;11.40;10.80;9.20
55449;PMS5003;41318;58.724;50.180;2023-01-28T06:57:32;1.00;1.00;1.00
55449;PMS5003;41318;58.724;50.180;2023-01-28T07:00:03;2.80;2.80;2.60
55449;PMS5003;41318;58.724;50.180;2023-01-28T07:02:35;9.00;9.00;7.40
55449;PMS5003;41318;58.724;50.180;2023-01-28T07:05:06;12.60;10.80;10.00
55449;PMS5003;41318;58.724;50.180;2023-01-28T07:07:37;7.00;7.00;6.00
55449;PMS5003;41318;58.724;50.180;2023-01-28T07:10:09;15.50;15.50;10.00
55449;PMS5003;41318;58.724;50.180;2023-01-28T07:12:40;11.60;11.60;4.40
55449;PMS5003;41318;58.724;50.180;2023-01-28T07:15:11;89.00;70.75;41.50
55449;PMS5003;41318;58.724;50.180;2023-01-28T07:17:42;47.00;44.20;28.60
55449;PMS5003;41318;58.724;50.180;2023-01-28T07:20:14;21.00;20.20;12.60
55449;PMS5003;41318;58.724;50.180;2023-01-28T07:22:45;40.20;38.20;22.00
55449;PMS5003;41318;58.724;50.180;2023-01-28T07:25:16;22.80;22.80;13.00
55449;PMS5003;41318;58.724;50.180;2023-01-28T07:27:48;9.80;9.80;7.40
55449;PMS5003;41318;58.724;50.180;2023-01-28T07:30:20;36.20;35.20;23.40
55449;PMS5003;41318;58.724;50.180;2023-01-28T07:32:55;13.20;13.20;8.80
55449;PMS5003;41318;58.724;50.180;2023-01-28T07:35:27;6.80;6.20;4.00
55449;PMS5003;41318;58.724;50.180;2023-01-28T07:38:16;1.00;1.00;1.00
55449;PMS5003;41318;58.724;50.180;2023-01-28T07:40:47;0.00;0.00;0.00
55449;PMS5003;41318;58.724;50.180;2023-01-28T07:43:18;22.00;21.60;13.00
55449;PMS5003;41318;58.724;50.180;2023-01-28T07:45:50;41.60;39.20;27.20
55449;PMS5003;41318;58.724;50.180;2023-01-28T07:48:21;19.80;19.80;14.60
55449;PMS5003;41318;58.724;50.180;2023-01-28T07:50:52;12.20;12.20;6.80
55449;PMS5003;41318;58.724;50.180;2023-01-28T07:53:23;7.80;7.00;5.60
55449;PMS5003;41318;58.724;50.180;2023-01-28T08:00:25;5.60;5.60;3.20
55449;PMS5003;41318;58.724;50.180;2023-01-28T08:07:21;3.40;3.40;1.00
55449;PMS5003;41318;58.724;50.180;2023-01-28T08:09:52;3.25;3.25;1.50
55449;PMS5003;41318;58.724;50.180;2023-01-28T08:12:23;1.40;1.40;1.00
55449;PMS5003;41318;58.724;50.180;2023-01-28T08:14:54;6.80;6.80;4.00
55449;PMS5003;41318;58.724;50.180;2023-01-28T08:17:44;4.40;4.40;4.00
55449;PMS5003;41318;58.724;50.180;2023-01-28T08:20:15;6.00;6.00;4.00
55449;PMS5003;41318;58.724;50.180;2023-01-28T08:22:46;39.60;36.00;24.20
55449;PMS5003;41318;58.724;50.180;2023-01-28T08:25:17;0.00;0.00;0.00
55449;PMS5003;41318;58.724;50.180;2023-01-28T08:27:48;0.00;0.00;0.00
55449;PMS5003;41318;58.724;50.180;2023-01-28T08:30:18;20.75;20.75;12.75
55449;PMS5003;41318;58.724;50.180;2023-01-28T08:32:49;30.25;29.25;20.00
55449;PMS5003;41318;58.724;50.180;2023-01-28T08:35:20;0.00;0.00;0.00
55449;PMS5003;41318;58.724;50.180;2023-01-28T08:37:52;1.00;1.00;0.80
55449;PMS5003;41318;58.724;50.180;2023-01-28T08:40:41;1.00;1.00;1.00
55449;PMS5003;41318;58.724;50.180;2023-01-28T08:43:12;1.50;1.50;1.00
55449;PMS5003;41318;58.724;50.180;2023-01-28T08:45:43;2.20;2.20;1.00
55449;PMS5003;41318;58.724;50.180;2023-01-28T08:48:15;1.00;1.00;1.00
55449;PMS5003;41318;58.724;50.180;2023-01-28T08:50:46;0.00;0.00;0.00
55449;PMS5003;41318;58.724;50.180;2023-01-28T08:53:18;0.80;0.80;0.60
55449;PMS5003;41318;58.724;50.180;2023-01-28T08:55:49;6.60;6.60;4.00
55449;PMS5003;41318;58.724;50.180;2023-01-28T08:58:20;1.80;1.80;0.40
55449;PMS5003;41318;58.724;50.180;2023-01-28T09:00:51;7.40;6.60;6.00
55449;PMS5003;41318;58.724;50.180;2023-01-28T09:03:22;9.00;8.60;6.00
55449;PMS5003;41318;58.724;50.180;2023-01-28T09:06:11;0.00;0.00;0.00
55449;PMS5003;41318;58.724;50.180;2023-01-28T09:08:42;7.00;7.00;6.00
55449;PMS5003;41318;58.724;50.180;2023-01-28T09:11:14;9.50;9.50;7.25
55449;PMS5003;41318;58.724;50.180;2023-01-28T09:13:45;6.40;6.40;5.20
55449;PMS5003;41318;58.724;50.180;2023-01-28T09:16:34;9.00;9.00;7.00
55449;PMS5003;41318;58.724;50.180;2023-01-28T09:19:05;0.25;0.25;0.00
55449;PMS5003;41318;58.724;50.180;2023-01-28T09:21:37;1.00;1.00;1.00
55449;PMS5003;41318;58.724;50.180;2023-01-28T09:24:11;0.00;0.00;0.00
55449;PMS5003;41318;58.724;50.180;2023-01-28T09:26:42;0.00;0.00;0.00
55449;PMS5003;41318;58.724;50.180;2023-01-28T09:29:14;0.00;0.00;0.00
55449;PMS5003;41318;58.724;50.180;2023-01-28T09:36:09;10.40;10.40;8.60
55449;PMS5003;41318;58.724;50.180;2023-01-28T09:38:41;10.80;10.80;6.40
55449;PMS5003;41318;58.724;50.180;2023-01-28T09:43:53;17.20;17.20;12.20
55449;PMS5003;41318;58.724;50.180;2023-01-28T09:46:33;3.80;3.80;3.00
55449;PMS5003;41318;58.724;50.180;2023-01-28T09:49:14;4.00;4.00;2.20
55449;PMS5003;41318;58.724;50.180;2023-01-28T09:51:48;7.40;6.80;5.20
55449;PMS5003;41318;58.724;50.180;2023-01-28T09:56:53;4.00;3.60;1.00
55449;PMS5003;41318;58.724;50.180;2023-01-28T09:59:25;3.80;3.80;3.00
55449;PMS5003;41318;58.724;50.180;2023-01-28T10:07:28;6.25;6.00;3.00
55449;PMS5003;41318;58.724;50.180;2023-01-28T10:10:23;4.00;4.00;3.00
55449;PMS5003;41318;58.724;50.180;2023-01-28T10:12:58;1.40;1.40;1.00
55449;PMS5003;41318;58.724;50.180;2023-01-28T10:18:09;3.20;3.20;2.60
55449;PMS5003;41318;58.724;50.180;2023-01-28T10:20:48;6.00;6.00;4.00
55449;PMS5003;41318;58.724;50.180;2023-01-28T10:23:25;0.20;0.20;0.20
55449;PMS5003;41318;58.724;50.180;2023-01-28T10:25:59;16.00;16.00;8.80
55449;PMS5003;41318;58.724;50.180;2023-01-28T10:28:34;17.80;17.60;11.20
55449;PMS5003;41318;58.724;50.180;2023-01-28T10:31:11;9.20;9.20;4.00
55449;PMS5003;41318;58.724;50.180;2023-01-28T10:33:43;9.80;9.80;6.20
55449;PMS5003;41318;58.724;50.180;2023-01-28T10:36:14;5.50;5.50;3.50
55449;PMS5003;41318;58.724;50.180;2023-01-28T10:38:47;3.20;3.20;1.00
55449;PMS5003;41318;58.724;50.180;2023-01-28T10:41:19;3.00;3.00;3.00
55449;PMS5003;41318;58.724;50.180;2023-01-28T10:43:50;5.60;4.00;3.20
55449;PMS5003;41318;58.724;50.180;2023-01-28T10:49:12;12.40;12.40;7.40
55449;PMS5003;41318;58.724;50.180;2023-01-28T10:51:45;15.20;14.80;7.40
55449;PMS5003;41318;58.724;50.180;2023-01-28T10:54:34;12.00;12.00;7.60
55449;PMS5003;41318;58.724;50.180;2023-01-28T10:57:08;6.50;6.25;3.75
55449;PMS5003;41318;58.724;50.180;2023-01-28T10:59:40;8.80;8.80;3.80
55449;PMS5003;41318;58.724;50.180;2023-01-28T11:06:34;26.20;24.40;15.00
55449;PMS5003;41318;58.724;50.180;2023-01-28T11:09:19;25.50;23.75;12.50
55449;PMS5003;41318;58.724;50.180;2023-01-28T11:11:50;15.00;15.00;9.00
55449;PMS5003;41318;58.724;50.180;2023-01-28T11:14:22;10.40;9.80;6.00
55449;PMS5003;41318;58.724;50.180;2023-01-28T11:16:53;24.60;24.40;12.00
55449;PMS5003;41318;58.724;50.180;2023-01-28T11:19:35;26.20;24.60;13.80
55449;PMS5003;41318;58.724;50.180;2023-01-28T11:22:13;15.20;13.40;8.60
55449;PMS5003;41318;58.724;50.180;2023-01-28T11:24:49;16.00;15.80;10.00
55449;PMS5003;41318;58.724;50.180;2023-01-28T11:27:39;22.20;21.20;14.60
55449;PMS5003;41318;58.724;50.180;2023-01-28T11:30:43;14.60;14.60;10.40
55449;PMS5003;41318;58.724;50.180;2023-01-28T11:35:40;7.00;7.00;5.50
55449;PMS5003;41318;58.724;50.180;2023-01-28T11:38:18;9.75;6.75;3.75
55449;PMS5003;41318;58.724;50.180;2023-01-28T11:40:50;24.40;24.40;13.40
55449;PMS5003;41318;58.724;50.180;2023-01-28T11:43:25;37.40;34.40;18.80
55449;PMS5003;41318;58.724;50.180;2023-01-28T11:53:53;20.75;19.50;14.00
55449;PMS5003;41318;58.724;50.180;2023-01-28T11:56:31;33.60;30.60;18.80
55449;PMS5003;41318;58.724;50.180;2023-01-28T12:10:20;30.00;29.40;18.20
55449;PMS5003;41318;58.724;50.180;2023-01-28T12:13:57;16.80;16.80;12.40
55449;PMS5003;41318;58.724;50.180;2023-01-28T12:24:49;24.60;24.60;20.20
55449;PMS5003;41318;58.724;50.180;2023-01-28T12:27:36;30.00;28.60;18.80
55449;PMS5003;41318;58.724;50.180;2023-01-28T12:32:56;26.40;26.40;15.80
55449;PMS5003;41318;58.724;50.180;2023-01-28T12:36:00;24.00;23.20;14.60
55449;PMS5003;41318;58.724;50.180;2023-01-28T12:41:21;25.00;24.60;12.60
55449;PMS5003;41318;58.724;50.180;2023-01-28T12:43:57;34.20;33.20;19.40
55449;PMS5003;41318;58.724;50.180;2023-01-28T12:46:39;36.40;35.00;23.20
55449;PMS5003;41318;58.724;50.180;2023-01-28T12:49:34;31.20;30.20;15.00
55449;PMS5003;41318;58.724;50.180;2023-01-28T12:57:27;9.60;9.00;6.40
55449;PMS5003;41318;58.724;50.180;2023-01-28T13:00:05;25.80;25.40;15.60
55449;PMS5003;41318;58.724;50.180;2023-01-28T13:06:01;6.20;6.00;4.00
55449;PMS5003;41318;58.724;50.180;2023-01-28T13:08:34;16.00;16.00;10.00
55449;PMS5003;41318;58.724;50.180;2023-01-28T13:11:05;14.20;14.20;9.00
55449;PMS5003;41318;58.724;50.180;2023-01-28T13:13:41;15.40;14.20;12.00
55449;PMS5003;41318;58.724;50.180;2023-01-28T13:16:12;4.20;4.20;3.00
55449;PMS5003;41318;58.724;50.180;2023-01-28T13:21:47;4.40;4.40;3.00
55449;PMS5003;41318;58.724;50.180;2023-01-28T13:24:20;11.60;10.80;5.60
55449;PMS5003;41318;58.724;50.180;2023-01-28T13:26:55;4.80;4.80;4.00
55449;PMS5003;41318;58.724;50.180;2023-01-28T13:29:28;22.00;22.00;15.00
55449;PMS5003;41318;58.724;50.180;2023-01-28T13:32:01;17.40;14.80;9.40
55449;PMS5003;41318;58.724;50.180;2023-01-28T13:34:41;23.80;23.80;15.20
55449;PMS5003;41318;58.724;50.180;2023-01-28T13:37:27;9.60;9.60;6.80
55449;PMS5003;41318;58.724;50.180;2023-01-28T13:42:43;21.80;21.80;15.60
55449;PMS5003;41318;58.724;50.180;2023-01-28T13:47:46;12.40;12.00;7.40
55449;PMS5003;41318;58.724;50.180;2023-01-28T13:50:20;9.00;9.00;4.00
55449;PMS5003;41318;58.724;50.180;2023-01-28T13:53:55;5.60;5.60;4.00
55449;PMS5003;41318;58.724;50.180;2023-01-28T13:56:06;3.80;3.80;2.60
55449;PMS5003;41318;58.724;50.180;2023-01-28T14:02:16;12.80;12.80;9.00
55449;PMS5003;41318;58.724;50.180;2023-01-28T14:13:05;24.20;22.40;9.20
55449;PMS5003;41318;58.724;50.180;2023-01-28T14:18:43;15.40;14.80;6.20
55449;PMS5003;41318;58.724;50.180;2023-01-28T14:21:16;30.60;30.00;16.40
55449;PMS5003;41318;58.724;50.180;2023-01-28T14:23:53;36.80;33.20;21.00
55449;PMS5003;41318;58.724;50.180;2023-01-28T14:26:26;45.00;42.40;21.60
55449;PMS5003;41318;58.724;50.180;2023-01-28T14:29:26;50.60;47.40;26.20
55449;PMS5003;41318;58.724;50.180;2023-01-28T14:32:03;3.00;0.00;0.00
55449;PMS5003;41318;58.724;50.180;2023-01-28T14:34:34;53.20;45.00;23.80
55449;PMS5003;41318;58.724;50.180;2023-01-28T14:37:21;28.20;27.20;15.80
55449;PMS5003;41318;58.724;50.180;2023-01-28T14:40:05;34.40;31.40;15.60
55449;PMS5003;41318;58.724;50.180;2023-01-28T14:42:37;29.40;27.00;16.80
55449;PMS5003;41318;58.724;50.180;2023-01-28T14:56:15;44.00;39.60;23.40
55449;PMS5003;41318;58.724;50.180;2023-01-28T14:58:58;26.00;23.60;7.80
55449;PMS5003;41318;58.724;50.180;2023-01-28T15:01:31;41.80;38.80;22.00
55449;PMS5003;41318;58.724;50.180;2023-01-28T15:04:02;50.75;45.25;24.00
55449;PMS5003;41318;58.724;50.180;2023-01-28T15:06:33;36.60;33.80;21.00
55449;PMS5003;41318;58.724;50.180;2023-01-28T15:09:11;53.40;44.40;19.60
55449;PMS5003;41318;58.724;50.180;2023-01-28T15:11:43;64.60;54.60;32.60
55449;PMS5003;41318;58.724;50.180;2023-01-28T15:14:19;49.80;46.40;27.40
55449;PMS5003;41318;58.724;50.180;2023-01-28T15:16:52;66.60;51.40;30.00
55449;PMS5003;41318;58.724;50.180;2023-01-28T15:19:30;36.00;33.60;20.60
55449;PMS5003;41318;58.724;50.180;2023-01-28T15:22:06;33.80;32.60;18.40
55449;PMS5003;41318;58.724;50.180;2023-01-28T15:24:37;40.60;34.20;21.00
55449;PMS5003;41318;58.724;50.180;2023-01-28T15:27:16;32.40;31.20;20.60
55449;PMS5003;41318;58.724;50.180;2023-01-28T15:29:52;34.80;33.80;22.00
55449;PMS5003;41318;58.724;50.180;2023-01-28T15:32:28;32.20;31.20;18.00
55449;PMS5003;41318;58.724;50.180;2023-01-28T15:34:59;23.60;22.40;12.60
55449;PMS5003;41318;58.724;50.180;2023-01-28T15:37:31;28.80;28.20;15.00
55449;PMS5003;41318;58.724;50.180;2023-01-28T15:40:02;35.25;35.25;21.25
55449;PMS5003;41318;58.724;50.180;2023-01-28T15:42:35;35.80;35.80;19.80
55449;PMS5003;41318;58.724;50.180;2023-01-28T15:45:17;31.00;30.00;15.80
55449;PMS5003;41318;58.724;50.180;2023-01-28T15:48:09;30.00;30.00;18.00
55449;PMS5003;41318;58.724;50.180;2023-01-28T15:50:41;30.60;27.80;18.20
55449;PMS5003;41318;58.724;50.180;2023-01-28T15:57:40;39.80;36.40;19.80
55449;PMS5003;41318;58.724;50.180;2023-01-28T16:00:14;24.25;21.50;11.00
55449;PMS5003;41318;58.724;50.180;2023-01-28T16:02:48;26.20;25.00;13.80
55449;PMS5003;41318;58.724;50.180;2023-01-28T16:16:57;17.40;16.80;11.60
55449;PMS5003;41318;58.724;50.180;2023-01-28T16:23:57;20.20;13.80;12.80
55449;PMS5003;41318;58.724;50.180;2023-01-28T16:26:29;3.00;3.00;0.00
55449;PMS5003;41318;58.724;50.180;2023-01-28T16:29:13;17.60;17.60;12.80
55449;PMS5003;41318;58.724;50.180;2023-01-28T16:31:45;20.80;20.20;14.20
55449;PMS5003;41318;58.724;50.180;2023-01-28T16:34:16;19.00;19.00;14.00
55449;PMS5003;41318;58.724;50.180;2023-01-28T16:36:46;14.00;11.75;6.75
55449;PMS5003;41318;58.724;50.180;2023-01-28T16:39:17;18.00;18.00;12.00
55449;PMS5003;41318;58.724;50.180;2023-01-28T16:41:48;16.50;16.50;11.50
55449;PMS5003;41318;58.724;50.180;2023-01-28T16:44:19;12.50;12.50;10.00
55449;PMS5003;41318;58.724;50.180;2023-01-28T16:46:50;9.50;9.50;6.75
55449;PMS5003;41318;58.724;50.180;2023-01-28T16:49:21;14.60;14.20;7.40
55449;PMS5003;41318;58.724;50.180;2023-01-28T16:51:52;17.20;16.80;9.20
55449;PMS5003;41318;58.724;50.180;2023-01-28T16:54:23;14.80;14.80;9.40
55449;PMS5003;41318;58.724;50.180;2023-01-28T16:56:54;12.75;11.50;8.50
55449;PMS5003;41318;58.724;50.180;2023-01-28T16:59:26;15.00;14.20;9.80
55449;PMS5003;41318;58.724;50.180;2023-01-28T17:01:57;18.50;18.00;9.25
55449;PMS5003;41318;58.724;50.180;2023-01-28T17:04:28;17.00;15.50;10.00
55449;PMS5003;41318;58.724;50.180;2023-01-28T17:07:17;19.80;19.80;12.20
55449;PMS5003;41318;58.724;50.180;2023-01-28T17:09:48;9.00;9.00;7.00
55449;PMS5003;41318;58.724;50.180;2023-01-28T17:12:19;9.20;9.20;4.40
55449;PMS5003;41318;58.724;50.180;2023-01-28T17:14:51;15.25;15.25;9.75
55449;PMS5003;41318;58.724;50.180;2023-01-28T17:17:42;24.40;21.60;12.00
55449;PMS5003;41318;58.724;50.180;2023-01-28T17:20:13;21.80;21.20;12.80
55449;PMS5003;41318;58.724;50.180;2023-01-28T17:22:44;18.60;18.00;10.40
55449;PMS5003;41318;58.724;50.180;2023-01-28T17:25:16;16.20;14.60;9.60
55449;PMS5003;41318;58.724;50.180;2023-01-28T17:27:48;14.80;14.80;10.00
55449;PMS5003;41318;58.724;50.180;2023-01-28T17:30:19;11.00;10.60;6.40
55449;PMS5003;41318;58.724;50.180;2023-01-28T17:32:50;18.80;18.60;11.20
55449;PMS5003;41318;58.724;50.180;2023-01-28T17:35:21;9.20;9.20;6.00
55449;PMS5003;41318;58.724;50.180;2023-01-28T17:37:53;13.80;13.80;9.60
55449;PMS5003;41318;58.724;50.180;2023-01-28T17:40:24;7.40;7.40;5.60
55449;PMS5003;41318;58.724;50.180;2023-01-28T17:42:55;14.20;12.20;6.20
55449;PMS5003;41318;58.724;50.180;2023-01-28T17:45:28;12.40;12.00;7.80
55449;PMS5003;41318;58.724;50.180;2023-01-28T17:47:59;18.20;17.20;9.00
55449;PMS5003;41318;58.724;50.180;2023-01-28T17:50:48;19.40;19.00;11.20